YILW weather

Inglewood Airport
Inglewood, Queensland, Australia

Public forecast

Using degrees Celsius for public forecast. Weather courtesy of forecast.io.

METAR (pilot weather report)

Closest report is Oakey Airport, 69.4 nm (128.4 km) NNE. Retrieved 2019/07/16 15:00 UTC (23 minutes ago):

YBOK 161500Z AUTO 24003KT 9999 // NCD 01/M04 Q1020

TAF (pilot weather forecast)

Forecast is more than 6 hours old.

Closest forecast is RAAF Base Amberley, 97.6 nm (180.7 km) ENE. Retrieved 2019/07/16 06:00 UTC (9 hours ago):

TAF YAMB 160404Z 1606/1624 29008KT CAVOK FM161000 VRB05KT CAVOK